Time;durP1;ratioP1;P1;durP2;ratioP2;P2;SDS_P1;SDS_P2;PMS_P1;PMS_P2;Temp;Humidity;BMP_temperature;BMP_pressure;BME280_temperature;BME280_humidity;BME280_pressure;Samples;Min_cycle;Max_cycle;Signal;HPM_P1;HPM_P2
2023/07/06 00:00:08;;;;;;;3.38;2.50;;;;;;;12.63;100.00;96051.00;1047603;28;20596;-72
2023/07/06 00:00:39;;;;;;;3.45;2.63;;;;;;;12.63;100.00;96048.38;1047666;28;20017;-72
2023/07/06 00:01:10;;;;;;;6.90;2.75;;;;;;;12.65;100.00;96056.81;1046945;28;20036;-70
2023/07/06 00:01:40;;;;;;;5.05;2.15;;;;;;;12.65;100.00;96054.16;1047301;28;20027;-72
2023/07/06 00:02:12;;;;;;;6.88;2.72;;;;;;;12.67;100.00;96060.72;1051418;28;20027;-72
2023/07/06 00:02:42;;;;;;;5.28;3.10;;;;;;;12.68;100.00;96058.91;1051322;28;20097;-72
2023/07/06 00:03:14;;;;;;;4.65;2.78;;;;;;;12.68;100.00;96058.91;1051660;28;20547;-72
2023/07/06 00:03:44;;;;;;;3.97;2.33;;;;;;;12.68;100.00;96057.06;1054976;28;20031;-72
2023/07/06 00:04:15;;;;;;;5.20;2.45;;;;;;;12.69;100.00;96066.53;1047546;28;20025;-70
2023/07/06 00:04:46;;;;;;;4.38;2.55;;;;;;;12.66;100.00;96061.78;1049042;28;20036;-72
2023/07/06 00:05:17;;;;;;;2.30;1.92;;;;;;;12.63;100.00;96069.44;1051775;28;20023;-72
2023/07/06 00:05:48;;;;;;;11.55;3.50;;;;;;;12.63;100.00;96069.44;1051920;28;20134;-71
2023/07/06 00:06:18;;;;;;;9.27;3.00;;;;;;;12.63;100.00;96064.16;1048791;28;20154;-72
2023/07/06 00:06:49;;;;;;;5.28;2.50;;;;;;;12.63;100.00;96072.06;1047672;28;20024;-72
2023/07/06 00:07:22;;;;;;;2.75;2.22;;;;;;;12.62;100.00;96067.88;1047295;28;20379;-72
2023/07/06 00:07:53;;;;;;;5.32;2.67;;;;;;;12.62;100.00;96060.75;1047143;28;20526;-70
2023/07/06 00:08:24;;;;;;;3.92;2.50;;;;;;;12.62;100.00;96066.00;1047225;28;20032;-72
2023/07/06 00:08:54;;;;;;;4.03;2.45;;;;;;;12.62;100.00;96065.22;1043528;28;20107;-72
2023/07/06 00:09:25;;;;;;;5.32;2.90;;;;;;;12.64;100.00;96063.09;1047224;28;20025;-70
2023/07/06 00:09:55;;;;;;;7.15;2.70;;;;;;;12.61;100.00;96063.63;1047302;28;20028;-69
2023/07/06 00:10:26;;;;;;;6.70;2.38;;;;;;;12.61;100.00;96068.91;1047297;28;20025;-72
2023/07/06 00:10:56;;;;;;;5.50;3.33;;;;;;;12.61;100.00;96063.63;1047361;28;20059;-71
2023/07/06 00:11:32;;;;;;;5.97;2.65;;;;;;;12.63;100.00;96056.28;1047041;28;20031;-72
2023/07/06 00:12:02;;;;;;;3.97;2.40;;;;;;;12.62;100.00;96059.97;1047336;28;20493;-72
2023/07/06 00:12:34;;;;;;;2.58;2.17;;;;;;;12.62;100.00;96062.59;1042999;28;20029;-70
2023/07/06 00:13:05;;;;;;;7.38;2.85;;;;;;;12.64;100.00;96058.66;1040929;28;20029;-73
2023/07/06 00:13:38;;;;;;;5.38;2.58;;;;;;;12.65;100.00;96062.06;1039055;28;20021;-73
2023/07/06 00:14:10;;;;;;;4.15;2.50;;;;;;;12.66;100.00;96063.63;1039836;28;20454;-72
2023/07/06 00:14:40;;;;;;;4.70;2.55;;;;;;;12.66;100.00;96064.41;1045334;28;20013;-73
2023/07/06 00:15:10;;;;;;;4.88;2.45;;;;;;;12.67;100.00;96058.09;1047417;28;20534;-72
2023/07/06 00:15:42;;;;;;;4.63;3.08;;;;;;;12.67;100.00;96062.56;1047428;28;20024;-72
2023/07/06 00:16:12;;;;;;;3.83;2.28;;;;;;;12.67;100.00;96052.81;1047286;28;20759;-74
2023/07/06 00:16:45;;;;;;;6.47;2.40;;;;;;;12.67;100.00;96052.81;1043311;28;20025;-71
2023/07/06 00:17:16;;;;;;;2.90;2.47;;;;;;;12.67;100.00;96052.81;1051516;28;20032;-72
2023/07/06 00:17:47;;;;;;;3.90;2.67;;;;;;;12.68;100.00;96061.53;1047388;28;20152;-72
2023/07/06 00:18:18;;;;;;;3.97;2.50;;;;;;;12.70;100.00;96048.88;1047310;28;20020;-71
2023/07/06 00:18:48;;;;;;;4.18;2.45;;;;;;;12.59;100.00;96037.59;1050527;28;20024;-72
2023/07/06 00:19:19;;;;;;;4.22;2.40;;;;;;;12.70;100.00;96048.88;1043505;28;20063;-72
2023/07/06 00:19:49;;;;;;;2.95;2.22;;;;;;;12.70;100.00;96047.03;1052004;28;20386;-71
2023/07/06 00:20:20;;;;;;;4.03;2.28;;;;;;;12.69;100.00;96042.03;1049119;28;20027;-72
2023/07/06 00:20:50;;;;;;;4.03;2.80;;;;;;;12.69;100.00;96044.66;1047299;28;20058;-73
2023/07/06 00:21:21;;;;;;;3.63;2.40;;;;;;;12.69;100.00;96044.66;1046570;28;20323;-73
2023/07/06 00:21:52;;;;;;;4.35;2.40;;;;;;;12.70;100.00;96040.97;1047280;28;20086;-71
2023/07/06 00:22:23;;;;;;;3.72;2.20;;;;;;;12.71;100.00;96042.56;1047399;28;20021;-72
2023/07/06 00:22:54;;;;;;;3.10;2.45;;;;;;;12.69;100.00;96040.19;1047193;28;20023;-72
2023/07/06 00:23:25;;;;;;;3.72;2.15;;;;;;;12.72;100.00;96046.78;1047294;28;20050;-72
2023/07/06 00:23:57;;;;;;;5.90;2.80;;;;;;;12.73;100.00;96049.13;1046992;28;20050;-72
2023/07/06 00:24:27;;;;;;;3.35;2.15;;;;;;;12.72;100.00;96044.91;1047349;28;20052;-72
2023/07/06 00:24:58;;;;;;;3.70;2.03;;;;;;;12.74;100.00;96047.28;1047445;28;20576;-72
2023/07/06 00:25:28;;;;;;;2.90;2.45;;;;;;;12.75;100.00;96043.59;1045049;28;20029;-72
2023/07/06 00:25:59;;;;;;;4.22;2.38;;;;;;;12.75;100.00;96038.34;1047192;28;20025;-72
2023/07/06 00:26:29;;;;;;;11.55;3.17;;;;;;;12.76;100.00;96039.91;1047563;28;20067;-72
2023/07/06 00:27:00;;;;;;;3.95;2.60;;;;;;;12.77;100.00;96041.47;1046985;28;20016;-72
2023/07/06 00:27:31;;;;;;;3.13;2.30;;;;;;;12.77;100.00;96038.84;1047620;28;20494;-72
2023/07/06 00:28:02;;;;;;;4.18;2.08;;;;;;;12.78;100.00;96040.44;1047807;28;20021;-72
2023/07/06 00:28:33;;;;;;;6.00;2.90;;;;;;;12.79;100.00;96039.38;1047225;28;20116;-72
2023/07/06 00:29:04;;;;;;;3.55;2.40;;;;;;;12.80;100.00;96038.31;1046919;28;20537;-72
2023/07/06 00:29:38;;;;;;;5.07;2.40;;;;;;;12.81;100.00;96042.53;1042999;28;20531;-71
2023/07/06 00:30:15;;;;;;;3.00;2.00;;;;;;;12.82;100.00;96038.84;1044003;28;20032;-73
2023/07/06 00:31:32;;;;;;;4.05;1.92;;;;;;;12.86;100.00;96033.81;1046317;28;20029;-72
2023/07/06 00:32:25;;;;;;;3.33;2.45;;;;;;;12.89;100.00;96036.69;1047356;28;20035;-73
2023/07/06 00:32:57;;;;;;;6.82;2.28;;;;;;;12.91;100.00;96031.97;1046657;28;20044;-73
2023/07/06 00:33:28;;;;;;;7.38;2.42;;;;;;;12.94;100.00;96036.69;1047041;28;20024;-72
2023/07/06 00:34:04;;;;;;;7.53;2.53;;;;;;;12.96;100.00;96034.56;1047057;28;20032;-72
2023/07/06 00:34:34;;;;;;;5.60;2.35;;;;;;;12.97;100.00;96030.84;1047251;28;20063;-72
2023/07/06 00:35:05;;;;;;;4.35;2.42;;;;;;;12.98;100.00;96032.47;1047344;28;20508;-72
2023/07/06 00:35:36;;;;;;;3.60;2.15;;;;;;;12.98;100.00;96032.47;1047287;28;20480;-73
2023/07/06 00:36:06;;;;;;;3.30;2.15;;;;;;;12.99;100.00;96027.97;1047596;28;20045;-72
2023/07/06 00:36:37;;;;;;;3.53;2.35;;;;;;;12.97;100.00;96036.13;1047512;28;20433;-73
2023/07/06 00:37:07;;;;;;;4.07;2.28;;;;;;;12.96;100.00;96029.28;1047479;28;20068;-72
2023/07/06 00:37:38;;;;;;;3.28;2.20;;;;;;;12.96;100.00;96033.78;1047417;28;20020;-72
2023/07/06 00:38:12;;;;;;;7.93;2.30;;;;;;;12.94;100.00;96031.44;1047574;28;20031;-73
2023/07/06 00:38:42;;;;;;;3.20;2.25;;;;;;;12.94;100.00;96031.44;1047329;28;20568;-72
2023/07/06 00:39:13;;;;;;;4.50;2.45;;;;;;;12.93;100.00;96035.09;1046958;28;20037;-72
2023/07/06 00:39:44;;;;;;;8.90;2.28;;;;;;;12.93;100.00;96034.31;1043082;28;20520;-73
2023/07/06 00:40:14;;;;;;;2.83;2.05;;;;;;;12.92;100.00;96032.75;1043718;28;20043;-73
2023/07/06 00:40:46;;;;;;;4.78;2.40;;;;;;;12.92;100.00;96030.91;1044372;28;20052;-70
2023/07/06 00:41:17;;;;;;;6.07;2.28;;;;;;;12.91;100.00;96028.53;1038644;28;20037;-72
2023/07/06 00:41:48;;;;;;;4.03;2.55;;;;;;;12.91;100.00;96031.16;1046900;28;20024;-73
2023/07/06 00:42:22;;;;;;;4.05;2.53;;;;;;;12.90;100.00;96033.00;1046429;28;20028;-72
2023/07/06 00:42:52;;;;;;;4.15;2.33;;;;;;;12.89;100.00;96034.06;1047360;28;20036;-72
2023/07/06 00:43:28;;;;;;;3.75;2.58;;;;;;;12.88;100.00;96032.50;1049595;28;20629;-73
2023/07/06 00:43:59;;;;;;;5.03;2.30;;;;;;;12.86;100.00;96034.59;1050854;28;20093;-72
2023/07/06 00:44:49;;;;;;;5.03;2.88;;;;;;;12.86;100.00;96031.97;1049015;28;20090;-73
2023/07/06 00:45:19;;;;;;;4.68;2.20;;;;;;;12.83;100.00;96032.50;1051777;28;20020;-72
2023/07/06 00:45:52;;;;;;;3.63;2.40;;;;;;;12.67;100.00;96012.56;1049421;28;20028;-71
2023/07/06 00:46:25;;;;;;;3.35;2.35;;;;;;;12.80;100.00;96033.03;1046469;28;20568;-72
2023/07/06 00:46:56;;;;;;;5.53;2.30;;;;;;;12.78;100.00;96034.38;1047233;28;20028;-72
2023/07/06 00:47:37;;;;;;;3.28;2.35;;;;;;;12.78;100.00;96031.75;1047169;28;20078;-72
2023/07/06 00:48:33;;;;;;;3.75;2.17;;;;;;;12.78;100.00;96035.19;1047146;28;20023;-73
2023/07/06 00:49:03;;;;;;;4.70;2.58;;;;;;;12.74;100.00;96036.75;1039413;28;20040;-72
2023/07/06 00:49:34;;;;;;;4.68;2.40;;;;;;;12.68;100.00;96033.34;1038947;28;20450;-73
2023/07/06 00:50:10;;;;;;;6.35;2.90;;;;;;;12.65;100.00;96038.38;1038944;28;20040;-73
2023/07/06 00:50:41;;;;;;;3.47;2.63;;;;;;;12.61;100.00;96032.84;1043831;28;20531;-72
2023/07/06 00:51:19;;;;;;;6.25;2.22;;;;;;;12.63;100.00;96032.56;1046682;28;20032;-73
2023/07/06 00:51:50;;;;;;;5.57;2.03;;;;;;;12.59;100.00;96028.91;1047681;28;20035;-72
2023/07/06 00:52:21;;;;;;;4.35;2.45;;;;;;;12.58;100.00;96032.59;1047223;28;20059;-72
2023/07/06 00:52:58;;;;;;;2.85;2.28;;;;;;;12.41;100.00;96004.75;1042954;28;20494;-72
2023/07/06 00:53:32;;;;;;;5.47;2.72;;;;;;;12.53;100.00;96035.22;1043202;28;20048;-72
2023/07/06 00:54:05;;;;;;;4.30;2.20;;;;;;;12.50;100.00;96029.44;1044735;28;20021;-72
2023/07/06 00:54:37;;;;;;;4.07;2.25;;;;;;;12.50;100.00;96037.34;1051380;28;20032;-73
2023/07/06 00:55:08;;;;;;;3.75;2.30;;;;;;;12.48;100.00;96034.19;1047229;28;20020;-72
2023/07/06 00:55:41;;;;;;;3.90;2.33;;;;;;;12.33;100.00;96005.28;1047375;28;20024;-72
2023/07/06 00:56:16;;;;;;;4.72;2.10;;;;;;;12.47;100.00;96030.00;1038479;28;20419;-73
2023/07/06 00:56:46;;;;;;;4.43;2.35;;;;;;;12.45;100.00;96034.72;1036108;28;20557;-73
2023/07/06 00:57:17;;;;;;;3.13;2.20;;;;;;;12.43;100.00;96031.56;1039042;28;20021;-72
2023/07/06 00:57:51;;;;;;;2.70;2.42;;;;;;;12.43;100.00;96031.56;1036903;28;20112;-71
2023/07/06 00:58:24;;;;;;;7.80;2.45;;;;;;;12.41;100.00;96028.44;1043988;28;20242;-73
2023/07/06 00:59:02;;;;;;;9.57;3.05;;;;;;;12.38;100.00;96028.97;1047209;28;20604;-72
2023/07/06 00:59:33;;;;;;;3.92;2.58;;;;;;;12.41;100.00;96022.38;1051341;28;20397;-72
2023/07/06 01:00:04;;;;;;;6.22;2.38;;;;;;;12.37;100.00;96026.56;1049978;28;20024;-72
2023/07/06 01:00:37;;;;;;;2.67;2.17;;;;;;;12.38;100.00;96028.97;1042987;28;20032;-72
2023/07/06 01:01:09;;;;;;;5.03;2.40;;;;;;;12.38;100.00;96030.81;1039841;28;20053;-74
2023/07/06 01:01:41;;;;;;;6.15;2.13;;;;;;;12.37;100.00;96030.00;1038981;28;20027;-73
2023/07/06 01:02:14;;;;;;;3.95;2.25;;;;;;;12.36;100.00;96027.63;1036038;28;20036;-73
2023/07/06 01:02:44;;;;;;;3.80;2.50;;;;;;;12.36;100.00;96023.16;1035311;28;20050;-72
2023/07/06 01:03:19;;;;;;;4.32;2.17;;;;;;;12.36;100.00;96028.44;1040229;28;20068;-72
2023/07/06 01:03:52;;;;;;;5.10;2.60;;;;;;;12.36;100.00;96031.06;1047229;28;20028;-72
2023/07/06 01:04:23;;;;;;;3.55;2.30;;;;;;;12.36;100.00;96020.53;1043995;28;20075;-73
2023/07/06 01:04:53;;;;;;;5.15;2.35;;;;;;;12.36;100.00;96023.16;1049704;28;20032;-73
2023/07/06 01:05:24;;;;;;;3.40;2.28;;;;;;;12.35;100.00;96018.97;1051390;28;20073;-73
2023/07/06 01:05:58;;;;;;;4.03;2.08;;;;;;;12.36;100.00;96025.78;1047156;28;20119;-73
2023/07/06 01:06:31;;;;;;;3.30;2.50;;;;;;;12.33;100.00;96015.78;1038937;28;20033;-72
2023/07/06 01:07:02;;;;;;;4.47;2.75;;;;;;;12.33;100.00;96017.66;1038890;28;20021;-73
2023/07/06 01:07:33;;;;;;;3.70;2.63;;;;;;;12.31;100.00;96011.84;1039962;28;20033;-72
2023/07/06 01:08:06;;;;;;;5.80;2.35;;;;;;;12.28;100.00;96010.56;1048735;28;20020;-72
2023/07/06 01:08:37;;;;;;;7.05;2.30;;;;;;;12.30;100.00;96015.53;1047138;28;20024;-72
2023/07/06 01:09:08;;;;;;;3.03;2.22;;;;;;;12.27;100.00;96016.84;1047091;28;20041;-72
2023/07/06 01:09:39;;;;;;;4.07;2.90;;;;;;;12.26;100.00;96016.06;1046578;28;20119;-73
2023/07/06 01:10:09;;;;;;;5.15;2.75;;;;;;;12.25;100.00;96011.88;1043674;28;20474;-72
2023/07/06 01:10:40;;;;;;;3.90;2.42;;;;;;;12.21;100.00;96010.84;1051418;28;20034;-72
2023/07/06 01:11:10;;;;;;;3.83;2.10;;;;;;;12.19;100.00;96018.19;1047036;28;20573;-72
2023/07/06 01:11:44;;;;;;;4.80;2.70;;;;;;;12.19;100.00;96012.94;1047153;28;20398;-72
2023/07/06 01:12:15;;;;;;;4.07;2.38;;;;;;;12.17;100.00;96014.25;1046604;28;20115;-72
2023/07/06 01:12:46;;;;;;;7.40;3.08;;;;;;;12.16;100.00;96015.31;1043621;28;20080;-71
2023/07/06 01:13:18;;;;;;;4.63;2.60;;;;;;;12.13;100.00;96011.34;1043779;28;20067;-72
2023/07/06 01:13:49;;;;;;;7.82;2.35;;;;;;;12.13;100.00;96018.47;1043937;28;20118;-73
2023/07/06 01:14:20;;;;;;;4.72;2.17;;;;;;;12.11;100.00;96015.31;1047230;28;20032;-71
2023/07/06 01:14:50;;;;;;;5.03;2.20;;;;;;;12.10;100.00;96014.50;1044107;28;20418;-73
2023/07/06 01:15:21;;;;;;;3.95;2.47;;;;;;;12.10;100.00;96021.63;1043228;28;20036;-72
2023/07/06 01:16:06;;;;;;;4.20;2.58;;;;;;;12.07;100.00;96011.63;1043059;28;20079;-71
2023/07/06 01:16:37;;;;;;;3.70;2.67;;;;;;;12.05;100.00;96009.28;1042697;28;20782;-71
2023/07/06 01:17:14;;;;;;;3.28;2.10;;;;;;;12.05;100.00;96008.50;1042925;28;20119;-72
2023/07/06 01:18:06;;;;;;;3.78;2.33;;;;;;;12.02;100.00;96010.59;1042221;28;20013;-70
2023/07/06 01:18:59;;;;;;;3.25;2.10;;;;;;;12.02;100.00;96009.81;1044873;28;20270;-72
2023/07/06 01:20:14;;;;;;;4.25;2.40;;;;;;;11.97;100.00;96012.41;1045496;28;20542;-72
2023/07/06 01:20:49;;;;;;;3.10;2.20;;;;;;;11.94;100.00;96008.50;1038641;28;20115;-72
2023/07/06 01:21:31;;;;;;;3.58;2.10;;;;;;;11.90;100.00;96012.69;1045944;28;20274;-72
2023/07/06 01:22:13;;;;;;;3.95;2.40;;;;;;;11.87;100.00;96013.25;1049123;28;20085;-72
2023/07/06 01:23:10;;;;;;;3.35;2.38;;;;;;;11.84;100.00;96008.50;1047248;28;20262;-73
2023/07/06 01:24:26;;;;;;;3.10;2.53;;;;;;;11.78;100.00;96017.41;1049845;28;20369;-72
2023/07/06 01:25:09;;;;;;;3.42;2.15;;;;;;;11.73;100.00;96012.91;1038590;28;20681;-73
2023/07/06 01:25:59;;;;;;;4.45;2.40;;;;;;;11.71;100.00;96017.66;1030563;28;20273;-72
2023/07/06 01:27:04;;;;;;;3.22;2.47;;;;;;;11.66;100.00;96016.88;1030657;28;20040;-72
2023/07/06 01:27:37;;;;;;;4.82;2.78;;;;;;;11.64;100.00;96013.72;1038749;28;20062;-71
2023/07/06 01:28:34;;;;;;;4.93;2.40;;;;;;;11.45;100.00;95990.56;1051177;28;20308;-71
2023/07/06 01:29:18;;;;;;;3.55;2.72;;;;;;;11.42;100.00;95990.31;1049515;28;20373;-72
2023/07/06 01:30:12;;;;;;;3.85;2.78;;;;;;;11.55;100.00;96016.84;1049710;28;20265;-71
2023/07/06 01:30:58;;;;;;;5.40;2.63;;;;;;;11.52;100.00;96017.38;1048298;28;20259;-73
2023/07/06 01:31:36;;;;;;;4.72;2.33;;;;;;;11.47;100.00;96020.00;1050913;28;20277;-72
2023/07/06 01:32:08;;;;;;;6.30;2.72;;;;;;;11.36;100.00;96000.00;1050114;28;20273;-72
2023/07/06 01:32:39;;;;;;;10.63;2.80;;;;;;;11.46;100.00;96015.78;1045516;28;20269;-72
2023/07/06 01:33:13;;;;;;;6.78;2.92;;;;;;;11.45;100.00;96016.06;1043005;28;20569;-72
2023/07/06 01:34:21;;;;;;;5.72;2.67;;;;;;;11.43;100.00;96016.31;1043528;28;20298;-72
2023/07/06 01:34:54;;;;;;;4.70;2.47;;;;;;;11.41;100.00;96021.06;1043705;28;20275;-72
2023/07/06 01:35:34;;;;;;;3.67;2.80;;;;;;;11.39;100.00;96017.88;1049939;28;20335;-72
2023/07/06 01:36:21;;;;;;;3.95;2.55;;;;;;;11.37;100.00;96016.56;1042886;28;20275;-72
2023/07/06 01:37:11;;;;;;;3.80;2.55;;;;;;;11.32;100.00;96014.72;1038881;28;20268;-72
2023/07/06 01:37:42;;;;;;;6.22;3.15;;;;;;;11.34;100.00;96020.53;1045002;28;20268;-72
2023/07/06 01:38:13;;;;;;;10.23;3.38;;;;;;;11.33;100.00;96024.16;1046948;28;20024;-72
2023/07/06 01:38:43;;;;;;;5.22;2.92;;;;;;;11.30;100.00;96022.88;1045877;28;20258;-73
2023/07/06 01:39:18;;;;;;;14.35;3.13;;;;;;;11.28;100.00;96021.56;1045888;28;20406;-72
2023/07/06 01:39:49;;;;;;;5.13;2.85;;;;;;;11.25;100.00;96022.06;1043781;28;20593;-72
2023/07/06 01:40:19;;;;;;;4.85;2.90;;;;;;;11.24;100.00;96025.75;1047193;28;20278;-72
2023/07/06 01:40:50;;;;;;;7.43;3.15;;;;;;;11.23;100.00;96024.16;1046869;28;20031;-72
2023/07/06 01:41:27;;;;;;;5.10;2.80;;;;;;;11.18;100.00;96021.53;1046422;28;20067;-72
2023/07/06 01:42:32;;;;;;;5.95;2.72;;;;;;;11.16;100.00;96024.41;1047133;28;20405;-72
2023/07/06 01:43:02;;;;;;;5.35;2.83;;;;;;;11.14;100.00;96028.34;1043023;28;20320;-73
2023/07/06 01:43:33;;;;;;;5.60;2.88;;;;;;;11.12;100.00;96027.81;1043018;28;21070;-71
2023/07/06 01:44:04;;;;;;;7.28;3.40;;;;;;;11.11;100.00;96026.25;1042546;28;20029;-72
2023/07/06 01:44:35;;;;;;;5.60;2.60;;;;;;;11.08;100.00;96024.91;1043090;28;20767;-72
2023/07/06 01:45:08;;;;;;;5.35;2.80;;;;;;;11.06;100.00;96025.16;1047451;28;20028;-72
2023/07/06 01:45:38;;;;;;;4.03;2.83;;;;;;;11.04;100.00;96027.25;1046883;28;20266;-72
2023/07/06 01:46:09;;;;;;;3.40;2.63;;;;;;;11.04;100.00;96031.72;1046986;28;20263;-73
2023/07/06 01:46:49;;;;;;;5.43;2.78;;;;;;;11.01;100.00;96027.78;1045419;28;20032;-72
2023/07/06 01:47:20;;;;;;;4.93;2.65;;;;;;;11.00;100.00;96023.59;1042852;28;20047;-72
2023/07/06 01:47:56;;;;;;;4.30;2.53;;;;;;;10.98;100.00;96027.50;1042914;28;20346;-72
2023/07/06 01:48:27;;;;;;;3.83;2.55;;;;;;;10.95;100.00;96023.56;1038820;28;20125;-71
2023/07/06 01:48:57;;;;;;;3.80;2.35;;;;;;;10.94;100.00;96021.19;1040656;28;20307;-72
2023/07/06 01:49:28;;;;;;;6.65;2.80;;;;;;;10.94;100.00;96026.44;1042697;28;20024;-72
2023/07/06 01:49:58;;;;;;;3.25;2.30;;;;;;;10.89;100.00;96021.94;1043413;28;20079;-72
2023/07/06 01:50:53;;;;;;;3.47;2.60;;;;;;;10.89;100.00;96029.81;1042832;28;20029;-72
2023/07/06 01:51:40;;;;;;;4.57;2.60;;;;;;;10.86;100.00;96027.72;1045772;28;20027;-70
2023/07/06 01:52:36;;;;;;;7.45;2.85;;;;;;;10.84;100.00;96027.19;1047192;28;20269;-72
2023/07/06 01:53:19;;;;;;;5.70;3.28;;;;;;;10.83;100.00;96031.66;1034296;28;20265;-71
2023/07/06 01:54:22;;;;;;;9.30;2.90;;;;;;;10.81;100.00;96027.69;1036817;28;20825;-73
2023/07/06 01:55:14;;;;;;;6.50;2.92;;;;;;;10.77;100.00;96029.28;1038486;28;20359;-73
2023/07/06 01:55:47;;;;;;;5.68;2.53;;;;;;;10.61;100.00;96012.66;1046118;28;20333;-73
2023/07/06 01:56:20;;;;;;;4.57;2.40;;;;;;;10.73;100.00;96030.81;1038876;28;20259;-73
2023/07/06 01:56:53;;;;;;;7.63;2.60;;;;;;;10.72;100.00;96029.22;1034544;28;20360;-73
2023/07/06 01:57:27;;;;;;;4.63;2.80;;;;;;;10.72;100.00;96035.28;1038776;28;20349;-73
2023/07/06 01:58:04;;;;;;;5.47;3.20;;;;;;;10.77;100.00;96031.91;1043862;28;20264;-73
2023/07/06 01:58:43;;;;;;;6.13;2.67;;;;;;;10.77;100.00;96039.75;1042858;28;20268;-73
2023/07/06 01:59:17;;;;;;;5.15;3.10;;;;;;;10.77;100.00;96037.13;1031605;28;20364;-73
2023/07/06 01:59:49;;;;;;;9.25;3.65;;;;;;;10.76;100.00;96040.78;1033637;28;20101;-73
2023/07/06 02:00:20;;;;;;;4.85;2.80;;;;;;;10.79;100.00;96038.44;1036837;28;20271;-73
2023/07/06 02:00:59;;;;;;;7.03;3.00;;;;;;;10.78;100.00;96039.50;1036314;28;20268;-73
2023/07/06 02:01:35;;;;;;;5.00;3.58;;;;;;;10.79;100.00;96041.06;1040123;28;20545;-72
2023/07/06 02:02:07;;;;;;;3.83;2.45;;;;;;;10.78;100.00;96039.50;1034823;28;20291;-74
2023/07/06 02:02:37;;;;;;;5.63;3.35;;;;;;;10.79;100.00;96041.06;1036973;28;20323;-72
2023/07/06 02:03:08;;;;;;;23.00;4.45;;;;;;;10.82;100.00;96042.41;1040572;28;20268;-72
2023/07/06 02:03:39;;;;;;;7.25;3.08;;;;;;;10.82;100.00;96039.78;1039386;28;20030;-73
2023/07/06 02:04:10;;;;;;;4.90;2.90;;;;;;;10.81;100.00;96039.00;1047029;28;20638;-72
2023/07/06 02:04:43;;;;;;;9.80;3.40;;;;;;;10.82;100.00;96045.03;1047602;28;20396;-72
2023/07/06 02:05:14;;;;;;;6.75;2.97;;;;;;;10.79;100.00;96043.69;1051176;28;20099;-72
2023/07/06 02:05:44;;;;;;;4.68;3.00;;;;;;;10.79;100.00;96037.66;1051610;28;20266;-72
2023/07/06 02:06:17;;;;;;;5.60;2.50;;;;;;;10.79;100.00;96042.91;1044624;28;20259;-72
2023/07/06 02:06:48;;;;;;;4.63;2.80;;;;;;;10.80;100.00;96041.88;1038735;28;20021;-73
2023/07/06 02:07:20;;;;;;;4.25;3.13;;;;;;;10.80;100.00;96039.25;1038676;28;20264;-72
2023/07/06 02:07:50;;;;;;;4.22;2.83;;;;;;;10.81;100.00;96038.22;1035195;28;20366;-72
2023/07/06 02:08:21;;;;;;;5.80;3.10;;;;;;;10.82;100.00;96040.56;1039372;28;20268;-72
2023/07/06 02:08:51;;;;;;;2.88;2.50;;;;;;;10.83;100.00;96038.72;1047093;28;20392;-73
2023/07/06 02:09:22;;;;;;;3.95;2.85;;;;;;;10.74;100.00;96014.03;1051438;28;20081;-72
2023/07/06 02:09:54;;;;;;;7.45;3.17;;;;;;;10.88;100.00;96037.97;1055334;28;20065;-73
2023/07/06 02:10:24;;;;;;;4.80;3.33;;;;;;;10.89;100.00;96040.31;1054803;28;20261;-73
2023/07/06 02:10:55;;;;;;;5.47;3.28;;;;;;;10.96;100.00;96040.09;1047336;28;20251;-74
2023/07/06 02:11:25;;;;;;;5.50;3.33;;;;;;;10.98;100.00;96038.78;1046369;28;20025;-72
2023/07/06 02:11:56;;;;;;;6.32;3.70;;;;;;;11.00;100.00;96041.97;1047201;28;20414;-73
2023/07/06 02:12:26;;;;;;;5.65;3.55;;;;;;;11.03;100.00;96043.25;1046983;28;20518;-73
2023/07/06 02:12:57;;;;;;;6.70;3.75;;;;;;;11.11;100.00;96036.75;1046803;28;20825;-72
2023/07/06 02:13:27;;;;;;;6.93;3.90;;;;;;;11.14;100.00;96038.84;1046941;28;20884;-72
2023/07/06 02:13:58;;;;;;;6.57;3.75;;;;;;;11.13;100.00;96045.13;1051249;28;20023;-73
2023/07/06 02:14:31;;;;;;;11.65;3.67;;;;;;;11.14;100.00;96044.09;1055369;28;20023;-73
2023/07/06 02:15:01;;;;;;;6.45;3.22;;;;;;;11.15;100.00;96043.84;1055547;28;20016;-73
2023/07/06 02:15:32;;;;;;;11.73;3.97;;;;;;;11.16;100.00;96042.00;1050591;28;20278;-74
2023/07/06 02:16:07;;;;;;;5.65;3.78;;;;;;;11.14;100.00;96038.84;1047119;28;20043;-73
2023/07/06 02:16:38;;;;;;;5.25;3.90;;;;;;;11.14;100.00;96041.47;1046779;28;20470;-72
2023/07/06 02:17:09;;;;;;;6.32;3.72;;;;;;;11.17;100.00;96040.97;1047093;28;20254;-73
2023/07/06 02:17:39;;;;;;;5.68;3.70;;;;;;;11.17;100.00;96041.75;1046810;28;20020;-72
2023/07/06 02:18:10;;;;;;;9.18;3.45;;;;;;;11.20;100.00;96048.31;1046776;28;20251;-73
2023/07/06 02:18:40;;;;;;;4.68;3.75;;;;;;;11.21;100.00;96044.66;1049490;28;20020;-74
2023/07/06 02:19:11;;;;;;;5.57;3.92;;;;;;;11.22;100.00;96048.84;1051045;28;20020;-72
2023/07/06 02:19:42;;;;;;;8.55;4.20;;;;;;;11.21;100.00;96047.28;1051111;28;20028;-73
2023/07/06 02:20:16;;;;;;;7.40;3.90;;;;;;;11.22;100.00;96051.47;1050040;28;20013;-73
2023/07/06 02:20:47;;;;;;;7.43;4.07;;;;;;;11.24;100.00;96049.38;1042735;28;20060;-73
2023/07/06 02:21:17;;;;;;;5.32;3.80;;;;;;;11.25;100.00;96057.00;1041994;28;20260;-73
2023/07/06 02:21:49;;;;;;;9.20;3.90;;;;;;;11.26;100.00;96049.91;1038401;28;20021;-73
2023/07/06 02:22:21;;;;;;;5.43;3.67;;;;;;;11.26;100.00;96049.91;1039439;28;20545;-73
2023/07/06 02:22:51;;;;;;;6.18;3.85;;;;;;;11.28;100.00;96053.06;1047494;28;20274;-73
2023/07/06 02:23:23;;;;;;;7.78;4.07;;;;;;;11.23;100.00;96045.97;1046288;28;20708;-73
2023/07/06 02:23:53;;;;;;;6.00;3.83;;;;;;;11.26;100.00;96055.94;1046433;28;20020;-72
2023/07/06 02:24:24;;;;;;;6.15;4.30;;;;;;;11.25;100.00;96051.75;1047578;28;20263;-73
2023/07/06 02:24:55;;;;;;;5.60;3.63;;;;;;;11.25;100.00;96056.22;1047391;28;20025;-73
2023/07/06 02:25:26;;;;;;;6.60;4.57;;;;;;;11.26;100.00;96049.91;1046948;28;20016;-73
2023/07/06 02:25:56;;;;;;;5.65;4.22;;;;;;;11.25;100.00;96049.13;1046593;28;20279;-73
2023/07/06 02:26:27;;;;;;;6.85;4.57;;;;;;;11.25;100.00;96053.59;1047124;28;20386;-73
2023/07/06 02:26:57;;;;;;;4.05;3.05;;;;;;;11.25;100.00;96056.22;1047368;28;20028;-73
2023/07/06 02:27:28;;;;;;;6.50;4.22;;;;;;;11.26;100.00;96060.41;1047161;28;20444;-73
2023/07/06 02:27:58;;;;;;;6.65;4.10;;;;;;;11.24;100.00;96054.66;1047096;28;20017;-72
2023/07/06 02:28:29;;;;;;;5.88;3.97;;;;;;;11.26;100.00;96066.44;1043199;28;20047;-73
2023/07/06 02:29:01;;;;;;;9.50;4.70;;;;;;;11.25;100.00;96061.47;1042915;28;20021;-73
2023/07/06 02:29:33;;;;;;;6.38;4.45;;;;;;;11.28;100.00;96058.31;1047316;28;20024;-70
2023/07/06 02:30:05;;;;;;;8.45;4.82;;;;;;;11.29;100.00;96057.28;1050522;28;20262;-73
2023/07/06 02:30:37;;;;;;;10.77;4.10;;;;;;;11.27;100.00;96064.63;1057774;28;20276;-73
2023/07/06 02:31:08;;;;;;;6.97;4.40;;;;;;;11.26;100.00;96061.19;1059100;27;20290;-73
2023/07/06 02:31:38;;;;;;;6.13;4.05;;;;;;;11.24;100.00;96062.53;1059588;27;20268;-71
2023/07/06 02:32:09;;;;;;;7.80;4.40;;;;;;;11.24;100.00;96058.06;1057051;27;20042;-74
2023/07/06 02:32:40;;;;;;;6.75;4.45;;;;;;;11.22;100.00;96056.72;1050304;28;20512;-72
2023/07/06 02:33:10;;;;;;;7.65;4.35;;;;;;;11.24;100.00;96057.28;1051256;28;20327;-73
2023/07/06 02:33:41;;;;;;;6.82;4.28;;;;;;;11.23;100.00;96060.94;1051134;28;20024;-74
2023/07/06 02:34:12;;;;;;;8.30;3.92;;;;;;;11.22;100.00;96054.09;1042933;28;20502;-73
2023/07/06 02:34:43;;;;;;;9.23;4.95;;;;;;;11.21;100.00;96055.16;1046266;28;20263;-73
2023/07/06 02:35:13;;;;;;;7.57;4.03;;;;;;;11.21;100.00;96057.78;1051196;28;20362;-72
2023/07/06 02:35:47;;;;;;;7.32;4.80;;;;;;;11.20;100.00;96051.75;1051236;28;20366;-73
2023/07/06 02:36:17;;;;;;;6.57;4.35;;;;;;;11.21;100.00;96063.03;1051239;28;20464;-72
2023/07/06 02:36:49;;;;;;;5.47;4.30;;;;;;;11.21;100.00;96063.03;1051337;28;20258;-73
2023/07/06 02:37:19;;;;;;;8.20;4.32;;;;;;;11.19;100.00;96059.88;1051121;28;20501;-73
2023/07/06 02:37:50;;;;;;;7.70;4.70;;;;;;;11.21;100.00;96057.78;1051292;28;20333;-73
2023/07/06 02:38:21;;;;;;;7.30;4.55;;;;;;;11.22;100.00;96054.88;1051059;28;20028;-73